sensor_id;sensor_type;location;lat;lon;timestamp;P1;durP1;ratioP1;P2;durP2;ratioP2
13457;SDS011;6801;53.018;11.560;2023-12-28T00:01:54;8.52;;;3.78;;
13457;SDS011;6801;53.018;11.560;2023-12-28T00:04:22;7.70;;;3.80;;
13457;SDS011;6801;53.018;11.560;2023-12-28T00:06:49;8.18;;;3.75;;
13457;SDS011;6801;53.018;11.560;2023-12-28T00:09:16;8.75;;;3.90;;
13457;SDS011;6801;53.018;11.560;2023-12-28T00:11:43;10.10;;;4.00;;
13457;SDS011;6801;53.018;11.560;2023-12-28T00:14:10;8.57;;;4.15;;
13457;SDS011;6801;53.018;11.560;2023-12-28T00:16:37;5.80;;;3.88;;
13457;SDS011;6801;53.018;11.560;2023-12-28T00:19:04;10.73;;;3.83;;
13457;SDS011;6801;53.018;11.560;2023-12-28T00:21:32;7.68;;;3.75;;
13457;SDS011;6801;53.018;11.560;2023-12-28T00:23:59;8.35;;;4.10;;
13457;SDS011;6801;53.018;11.560;2023-12-28T00:26:26;8.68;;;3.65;;
13457;SDS011;6801;53.018;11.560;2023-12-28T00:29:01;7.13;;;4.20;;
13457;SDS011;6801;53.018;11.560;2023-12-28T00:31:28;6.18;;;3.65;;
13457;SDS011;6801;53.018;11.560;2023-12-28T00:33:55;9.40;;;3.72;;
13457;SDS011;6801;53.018;11.560;2023-12-28T00:36:22;8.50;;;3.88;;
13457;SDS011;6801;53.018;11.560;2023-12-28T00:38:51;6.50;;;3.10;;
13457;SDS011;6801;53.018;11.560;2023-12-28T00:41:18;7.43;;;3.70;;
13457;SDS011;6801;53.018;11.560;2023-12-28T00:43:45;9.65;;;3.35;;
13457;SDS011;6801;53.018;11.560;2023-12-28T00:46:12;8.02;;;3.80;;
13457;SDS011;6801;53.018;11.560;2023-12-28T00:48:39;7.97;;;2.97;;
13457;SDS011;6801;53.018;11.560;2023-12-28T00:51:06;8.40;;;3.38;;
13457;SDS011;6801;53.018;11.560;2023-12-28T00:53:33;9.35;;;3.15;;
13457;SDS011;6801;53.018;11.560;2023-12-28T00:56:02;8.45;;;3.13;;
13457;SDS011;6801;53.018;11.560;2023-12-28T00:58:29;9.15;;;3.05;;
13457;SDS011;6801;53.018;11.560;2023-12-28T01:00:56;6.18;;;3.13;;
13457;SDS011;6801;53.018;11.560;2023-12-28T01:03:23;5.20;;;2.95;;
13457;SDS011;6801;53.018;11.560;2023-12-28T01:05:52;6.80;;;2.70;;
13457;SDS011;6801;53.018;11.560;2023-12-28T01:08:19;10.20;;;2.75;;
13457;SDS011;6801;53.018;11.560;2023-12-28T01:10:46;5.78;;;2.30;;
13457;SDS011;6801;53.018;11.560;2023-12-28T01:13:14;4.47;;;2.00;;
13457;SDS011;6801;53.018;11.560;2023-12-28T01:15:42;6.10;;;2.35;;
13457;SDS011;6801;53.018;11.560;2023-12-28T01:18:11;6.57;;;2.17;;
13457;SDS011;6801;53.018;11.560;2023-12-28T01:20:38;5.10;;;2.28;;
13457;SDS011;6801;53.018;11.560;2023-12-28T01:23:05;4.88;;;1.92;;
13457;SDS011;6801;53.018;11.560;2023-12-28T01:25:32;4.10;;;1.83;;
13457;SDS011;6801;53.018;11.560;2023-12-28T01:28:00;4.43;;;1.92;;
13457;SDS011;6801;53.018;11.560;2023-12-28T01:30:28;3.97;;;1.60;;
13457;SDS011;6801;53.018;11.560;2023-12-28T01:32:55;4.05;;;2.35;;
13457;SDS011;6801;53.018;11.560;2023-12-28T01:35:22;2.75;;;1.90;;
13457;SDS011;6801;53.018;11.560;2023-12-28T01:37:49;2.63;;;1.10;;
13457;SDS011;6801;53.018;11.560;2023-12-28T01:40:16;7.28;;;1.63;;
13457;SDS011;6801;53.018;11.560;2023-12-28T01:42:44;3.08;;;1.40;;
13457;SDS011;6801;53.018;11.560;2023-12-28T01:45:11;3.67;;;0.95;;
13457;SDS011;6801;53.018;11.560;2023-12-28T01:47:40;2.28;;;1.15;;
13457;SDS011;6801;53.018;11.560;2023-12-28T01:50:07;5.05;;;1.10;;
13457;SDS011;6801;53.018;11.560;2023-12-28T01:52:35;3.92;;;0.95;;
13457;SDS011;6801;53.018;11.560;2023-12-28T01:55:03;5.93;;;1.10;;
13457;SDS011;6801;53.018;11.560;2023-12-28T01:57:31;4.50;;;1.35;;
13457;SDS011;6801;53.018;11.560;2023-12-28T01:59:58;3.47;;;0.88;;
13457;SDS011;6801;53.018;11.560;2023-12-28T02:02:27;3.58;;;1.25;;
13457;SDS011;6801;53.018;11.560;2023-12-28T02:04:55;3.10;;;1.30;;
13457;SDS011;6801;53.018;11.560;2023-12-28T02:07:23;3.00;;;1.10;;
13457;SDS011;6801;53.018;11.560;2023-12-28T02:09:52;2.53;;;1.00;;
13457;SDS011;6801;53.018;11.560;2023-12-28T02:12:19;5.05;;;1.30;;
13457;SDS011;6801;53.018;11.560;2023-12-28T02:14:47;4.38;;;1.50;;
13457;SDS011;6801;53.018;11.560;2023-12-28T02:17:15;3.53;;;1.02;;
13457;SDS011;6801;53.018;11.560;2023-12-28T02:19:49;2.28;;;1.13;;
13457;SDS011;6801;53.018;11.560;2023-12-28T02:22:19;3.38;;;0.75;;
13457;SDS011;6801;53.018;11.560;2023-12-28T02:24:57;1.83;;;0.77;;
13457;SDS011;6801;53.018;11.560;2023-12-28T02:27:29;4.35;;;1.17;;
13457;SDS011;6801;53.018;11.560;2023-12-28T02:29:57;4.13;;;1.05;;
13457;SDS011;6801;53.018;11.560;2023-12-28T02:32:27;2.83;;;0.98;;
13457;SDS011;6801;53.018;11.560;2023-12-28T02:35:03;2.35;;;1.05;;
13457;SDS011;6801;53.018;11.560;2023-12-28T02:37:42;2.20;;;1.00;;
13457;SDS011;6801;53.018;11.560;2023-12-28T02:40:12;2.22;;;1.02;;
13457;SDS011;6801;53.018;11.560;2023-12-28T02:42:42;2.85;;;1.00;;
13457;SDS011;6801;53.018;11.560;2023-12-28T02:45:09;4.75;;;1.25;;
13457;SDS011;6801;53.018;11.560;2023-12-28T02:47:36;2.17;;;0.98;;
13457;SDS011;6801;53.018;11.560;2023-12-28T02:50:03;5.50;;;0.90;;
13457;SDS011;6801;53.018;11.560;2023-12-28T02:52:31;3.72;;;1.10;;
13457;SDS011;6801;53.018;11.560;2023-12-28T02:54:58;3.03;;;1.15;;
13457;SDS011;6801;53.018;11.560;2023-12-28T02:57:26;4.15;;;1.10;;
13457;SDS011;6801;53.018;11.560;2023-12-28T02:59:53;4.72;;;1.35;;
13457;SDS011;6801;53.018;11.560;2023-12-28T03:02:21;2.15;;;1.13;;
13457;SDS011;6801;53.018;11.560;2023-12-28T03:04:49;2.60;;;0.93;;
13457;SDS011;6801;53.018;11.560;2023-12-28T03:07:16;2.63;;;0.82;;
13457;SDS011;6801;53.018;11.560;2023-12-28T03:09:44;3.85;;;1.02;;
13457;SDS011;6801;53.018;11.560;2023-12-28T03:12:11;1.85;;;1.00;;
13457;SDS011;6801;53.018;11.560;2023-12-28T03:14:39;3.38;;;1.17;;
13457;SDS011;6801;53.018;11.560;2023-12-28T03:17:06;1.40;;;0.80;;
13457;SDS011;6801;53.018;11.560;2023-12-28T03:19:35;1.67;;;0.63;;
13457;SDS011;6801;53.018;11.560;2023-12-28T03:22:03;7.10;;;1.00;;
13457;SDS011;6801;53.018;11.560;2023-12-28T03:24:30;4.00;;;1.10;;
13457;SDS011;6801;53.018;11.560;2023-12-28T03:26:56;4.00;;;0.90;;
13457;SDS011;6801;53.018;11.560;2023-12-28T03:29:24;4.57;;;1.50;;
13457;SDS011;6801;53.018;11.560;2023-12-28T03:31:52;6.95;;;1.38;;
13457;SDS011;6801;53.018;11.560;2023-12-28T03:34:21;4.47;;;1.27;;
13457;SDS011;6801;53.018;11.560;2023-12-28T03:36:48;2.33;;;1.20;;
13457;SDS011;6801;53.018;11.560;2023-12-28T03:39:16;9.25;;;1.00;;
13457;SDS011;6801;53.018;11.560;2023-12-28T03:41:43;3.47;;;1.30;;
13457;SDS011;6801;53.018;11.560;2023-12-28T03:44:10;3.42;;;1.27;;
13457;SDS011;6801;53.018;11.560;2023-12-28T03:46:38;2.95;;;0.88;;
13457;SDS011;6801;53.018;11.560;2023-12-28T03:49:06;2.47;;;1.08;;
13457;SDS011;6801;53.018;11.560;2023-12-28T03:51:33;6.30;;;1.20;;
13457;SDS011;6801;53.018;11.560;2023-12-28T03:54:00;2.20;;;1.20;;
13457;SDS011;6801;53.018;11.560;2023-12-28T03:56:27;3.05;;;1.38;;
13457;SDS011;6801;53.018;11.560;2023-12-28T03:58:55;2.67;;;0.90;;
13457;SDS011;6801;53.018;11.560;2023-12-28T04:01:22;4.97;;;1.08;;
13457;SDS011;6801;53.018;11.560;2023-12-28T04:03:49;6.15;;;1.40;;
13457;SDS011;6801;53.018;11.560;2023-12-28T04:06:17;2.03;;;1.10;;
13457;SDS011;6801;53.018;11.560;2023-12-28T04:08:44;3.72;;;1.15;;
13457;SDS011;6801;53.018;11.560;2023-12-28T04:11:11;3.60;;;0.90;;
13457;SDS011;6801;53.018;11.560;2023-12-28T04:13:39;2.22;;;1.10;;
13457;SDS011;6801;53.018;11.560;2023-12-28T04:16:06;3.67;;;1.23;;
13457;SDS011;6801;53.018;11.560;2023-12-28T04:18:34;2.75;;;1.10;;
13457;SDS011;6801;53.018;11.560;2023-12-28T04:21:01;2.92;;;1.10;;
13457;SDS011;6801;53.018;11.560;2023-12-28T04:23:29;3.03;;;1.23;;
13457;SDS011;6801;53.018;11.560;2023-12-28T04:25:58;5.43;;;1.23;;
13457;SDS011;6801;53.018;11.560;2023-12-28T04:28:25;3.00;;;1.25;;
13457;SDS011;6801;53.018;11.560;2023-12-28T04:30:51;3.42;;;0.95;;
13457;SDS011;6801;53.018;11.560;2023-12-28T04:33:18;6.13;;;1.20;;
13457;SDS011;6801;53.018;11.560;2023-12-28T04:35:46;3.28;;;1.33;;
13457;SDS011;6801;53.018;11.560;2023-12-28T04:38:13;3.22;;;1.25;;
13457;SDS011;6801;53.018;11.560;2023-12-28T04:40:41;4.70;;;1.27;;
13457;SDS011;6801;53.018;11.560;2023-12-28T04:43:08;2.95;;;1.20;;
13457;SDS011;6801;53.018;11.560;2023-12-28T04:45:35;4.60;;;1.30;;
13457;SDS011;6801;53.018;11.560;2023-12-28T04:48:03;3.33;;;1.05;;
13457;SDS011;6801;53.018;11.560;2023-12-28T04:50:30;2.88;;;1.17;;
13457;SDS011;6801;53.018;11.560;2023-12-28T04:52:57;1.90;;;0.88;;
13457;SDS011;6801;53.018;11.560;2023-12-28T04:55:24;2.65;;;1.00;;
13457;SDS011;6801;53.018;11.560;2023-12-28T04:57:52;3.85;;;1.10;;
13457;SDS011;6801;53.018;11.560;2023-12-28T05:00:19;2.45;;;0.85;;
13457;SDS011;6801;53.018;11.560;2023-12-28T05:02:48;4.28;;;1.08;;
13457;SDS011;6801;53.018;11.560;2023-12-28T05:05:15;3.85;;;1.20;;
13457;SDS011;6801;53.018;11.560;2023-12-28T05:07:41;2.67;;;1.50;;
13457;SDS011;6801;53.018;11.560;2023-12-28T05:10:09;4.70;;;1.27;;
13457;SDS011;6801;53.018;11.560;2023-12-28T05:12:35;2.78;;;1.27;;
13457;SDS011;6801;53.018;11.560;2023-12-28T05:15:04;2.20;;;1.00;;
13457;SDS011;6801;53.018;11.560;2023-12-28T05:17:32;5.88;;;1.30;;
13457;SDS011;6801;53.018;11.560;2023-12-28T05:19:59;3.33;;;1.33;;
13457;SDS011;6801;53.018;11.560;2023-12-28T05:22:26;6.45;;;1.23;;
13457;SDS011;6801;53.018;11.560;2023-12-28T05:24:53;3.17;;;1.33;;
13457;SDS011;6801;53.018;11.560;2023-12-28T05:27:19;4.90;;;1.40;;
13457;SDS011;6801;53.018;11.560;2023-12-28T05:29:46;3.10;;;1.25;;
13457;SDS011;6801;53.018;11.560;2023-12-28T05:32:15;2.05;;;1.17;;
13457;SDS011;6801;53.018;11.560;2023-12-28T05:34:42;4.93;;;1.40;;
13457;SDS011;6801;53.018;11.560;2023-12-28T05:37:09;3.13;;;1.48;;
13457;SDS011;6801;53.018;11.560;2023-12-28T05:39:36;6.63;;;1.90;;
13457;SDS011;6801;53.018;11.560;2023-12-28T05:42:03;3.35;;;1.60;;
13457;SDS011;6801;53.018;11.560;2023-12-28T05:44:30;2.75;;;1.13;;
13457;SDS011;6801;53.018;11.560;2023-12-28T05:46:57;3.40;;;1.13;;
13457;SDS011;6801;53.018;11.560;2023-12-28T05:49:25;3.22;;;1.50;;
13457;SDS011;6801;53.018;11.560;2023-12-28T05:51:53;2.40;;;1.30;;
13457;SDS011;6801;53.018;11.560;2023-12-28T05:54:20;3.72;;;1.48;;
13457;SDS011;6801;53.018;11.560;2023-12-28T05:56:47;1.95;;;1.08;;
13457;SDS011;6801;53.018;11.560;2023-12-28T05:59:14;2.53;;;0.98;;
13457;SDS011;6801;53.018;11.560;2023-12-28T06:01:42;5.20;;;1.50;;
13457;SDS011;6801;53.018;11.560;2023-12-28T06:04:09;2.45;;;1.42;;
13457;SDS011;6801;53.018;11.560;2023-12-28T06:06:37;4.10;;;1.52;;
13457;SDS011;6801;53.018;11.560;2023-12-28T06:09:04;4.35;;;1.60;;
13457;SDS011;6801;53.018;11.560;2023-12-28T06:11:32;4.00;;;1.38;;
13457;SDS011;6801;53.018;11.560;2023-12-28T06:14:00;2.42;;;1.08;;
13457;SDS011;6801;53.018;11.560;2023-12-28T06:16:27;3.40;;;1.20;;
13457;SDS011;6801;53.018;11.560;2023-12-28T06:21:25;4.88;;;1.42;;
13457;SDS011;6801;53.018;11.560;2023-12-28T06:23:53;4.50;;;1.10;;
13457;SDS011;6801;53.018;11.560;2023-12-28T06:26:20;3.95;;;1.48;;
13457;SDS011;6801;53.018;11.560;2023-12-28T06:28:47;3.22;;;1.30;;
13457;SDS011;6801;53.018;11.560;2023-12-28T06:31:14;2.60;;;1.25;;
13457;SDS011;6801;53.018;11.560;2023-12-28T06:33:41;2.80;;;1.20;;
13457;SDS011;6801;53.018;11.560;2023-12-28T06:36:09;5.32;;;1.70;;
13457;SDS011;6801;53.018;11.560;2023-12-28T06:38:37;2.78;;;1.13;;
13457;SDS011;6801;53.018;11.560;2023-12-28T06:41:10;5.53;;;1.30;;
13457;SDS011;6801;53.018;11.560;2023-12-28T06:43:38;3.05;;;1.15;;
13457;SDS011;6801;53.018;11.560;2023-12-28T06:46:05;6.28;;;1.83;;
13457;SDS011;6801;53.018;11.560;2023-12-28T06:48:32;3.10;;;1.27;;
13457;SDS011;6801;53.018;11.560;2023-12-28T06:50:59;2.95;;;1.52;;
13457;SDS011;6801;53.018;11.560;2023-12-28T06:53:27;5.50;;;1.52;;
13457;SDS011;6801;53.018;11.560;2023-12-28T06:55:54;6.68;;;1.25;;
13457;SDS011;6801;53.018;11.560;2023-12-28T06:58:22;3.95;;;1.63;;
13457;SDS011;6801;53.018;11.560;2023-12-28T07:00:49;3.85;;;1.40;;
13457;SDS011;6801;53.018;11.560;2023-12-28T07:03:16;6.85;;;1.67;;
13457;SDS011;6801;53.018;11.560;2023-12-28T07:05:43;4.22;;;1.40;;
13457;SDS011;6801;53.018;11.560;2023-12-28T07:08:10;4.32;;;1.13;;
13457;SDS011;6801;53.018;11.560;2023-12-28T07:10:37;4.80;;;1.40;;
13457;SDS011;6801;53.018;11.560;2023-12-28T07:13:04;3.63;;;1.40;;
13457;SDS011;6801;53.018;11.560;2023-12-28T07:15:34;3.92;;;1.50;;
13457;SDS011;6801;53.018;11.560;2023-12-28T07:18:02;3.45;;;1.38;;
13457;SDS011;6801;53.018;11.560;2023-12-28T07:20:30;5.28;;;1.55;;
13457;SDS011;6801;53.018;11.560;2023-12-28T07:22:57;4.15;;;1.35;;
13457;SDS011;6801;53.018;11.560;2023-12-28T07:25:24;2.47;;;1.10;;
13457;SDS011;6801;53.018;11.560;2023-12-28T07:27:51;2.60;;;1.20;;
13457;SDS011;6801;53.018;11.560;2023-12-28T07:30:18;2.67;;;1.35;;
13457;SDS011;6801;53.018;11.560;2023-12-28T07:32:47;5.47;;;1.45;;
13457;SDS011;6801;53.018;11.560;2023-12-28T07:35:13;4.50;;;1.35;;
13457;SDS011;6801;53.018;11.560;2023-12-28T07:37:40;3.53;;;1.27;;
13457;SDS011;6801;53.018;11.560;2023-12-28T07:40:08;3.63;;;1.23;;
13457;SDS011;6801;53.018;11.560;2023-12-28T07:42:35;2.90;;;1.50;;
13457;SDS011;6801;53.018;11.560;2023-12-28T07:45:02;2.80;;;1.00;;
13457;SDS011;6801;53.018;11.560;2023-12-28T07:47:29;3.45;;;1.27;;
13457;SDS011;6801;53.018;11.560;2023-12-28T07:49:58;2.58;;;1.23;;
13457;SDS011;6801;53.018;11.560;2023-12-28T07:52:26;5.78;;;1.63;;
13457;SDS011;6801;53.018;11.560;2023-12-28T07:54:53;3.40;;;1.58;;
13457;SDS011;6801;53.018;11.560;2023-12-28T07:57:21;2.83;;;1.00;;
13457;SDS011;6801;53.018;11.560;2023-12-28T07:59:47;3.53;;;1.55;;
13457;SDS011;6801;53.018;11.560;2023-12-28T08:02:14;2.25;;;1.05;;
13457;SDS011;6801;53.018;11.560;2023-12-28T08:04:41;2.63;;;1.35;;
13457;SDS011;6801;53.018;11.560;2023-12-28T08:07:10;3.13;;;1.20;;
13457;SDS011;6801;53.018;11.560;2023-12-28T08:09:37;3.97;;;1.15;;
13457;SDS011;6801;53.018;11.560;2023-12-28T08:12:05;4.15;;;1.60;;
13457;SDS011;6801;53.018;11.560;2023-12-28T08:14:32;4.53;;;1.55;;
13457;SDS011;6801;53.018;11.560;2023-12-28T08:16:59;2.35;;;1.27;;
13457;SDS011;6801;53.018;11.560;2023-12-28T08:19:25;4.57;;;1.55;;
13457;SDS011;6801;53.018;11.560;2023-12-28T08:21:52;7.32;;;1.80;;
13457;SDS011;6801;53.018;11.560;2023-12-28T08:24:21;4.25;;;1.50;;
13457;SDS011;6801;53.018;11.560;2023-12-28T08:26:48;3.25;;;1.40;;
13457;SDS011;6801;53.018;11.560;2023-12-28T08:29:15;2.83;;;1.20;;
13457;SDS011;6801;53.018;11.560;2023-12-28T08:31:43;3.00;;;1.35;;
13457;SDS011;6801;53.018;11.560;2023-12-28T08:34:10;3.45;;;1.42;;
13457;SDS011;6801;53.018;11.560;2023-12-28T08:36:37;3.00;;;1.42;;
13457;SDS011;6801;53.018;11.560;2023-12-28T08:39:04;3.58;;;1.30;;
13457;SDS011;6801;53.018;11.560;2023-12-28T08:41:32;6.18;;;1.38;;
13457;SDS011;6801;53.018;11.560;2023-12-28T08:43:59;4.15;;;1.63;;
13457;SDS011;6801;53.018;11.560;2023-12-28T08:46:26;4.97;;;1.20;;
13457;SDS011;6801;53.018;11.560;2023-12-28T08:48:54;6.57;;;1.27;;
13457;SDS011;6801;53.018;11.560;2023-12-28T08:51:21;4.30;;;1.25;;
13457;SDS011;6801;53.018;11.560;2023-12-28T08:53:48;4.35;;;1.60;;
13457;SDS011;6801;53.018;11.560;2023-12-28T08:56:19;4.07;;;1.17;;
13457;SDS011;6801;53.018;11.560;2023-12-28T08:58:48;5.55;;;1.70;;
13457;SDS011;6801;53.018;11.560;2023-12-28T09:01:17;2.83;;;1.23;;
13457;SDS011;6801;53.018;11.560;2023-12-28T09:03:47;4.38;;;1.23;;
13457;SDS011;6801;53.018;11.560;2023-12-28T09:06:14;2.88;;;1.10;;
13457;SDS011;6801;53.018;11.560;2023-12-28T09:08:41;3.38;;;1.38;;
13457;SDS011;6801;53.018;11.560;2023-12-28T09:11:09;3.75;;;1.95;;
13457;SDS011;6801;53.018;11.560;2023-12-28T09:13:37;4.05;;;1.17;;
13457;SDS011;6801;53.018;11.560;2023-12-28T09:16:06;3.25;;;0.98;;
13457;SDS011;6801;53.018;11.560;2023-12-28T09:18:36;3.05;;;1.20;;
13457;SDS011;6801;53.018;11.560;2023-12-28T09:21:03;4.25;;;1.33;;
13457;SDS011;6801;53.018;11.560;2023-12-28T09:23:31;3.47;;;0.95;;
13457;SDS011;6801;53.018;11.560;2023-12-28T09:25:58;4.13;;;1.10;;
13457;SDS011;6801;53.018;11.560;2023-12-28T09:28:26;5.45;;;1.65;;
13457;SDS011;6801;53.018;11.560;2023-12-28T09:30:53;4.90;;;1.50;;
13457;SDS011;6801;53.018;11.560;2023-12-28T09:33:21;2.22;;;0.90;;
13457;SDS011;6801;53.018;11.560;2023-12-28T09:35:49;4.78;;;1.20;;
13457;SDS011;6801;53.018;11.560;2023-12-28T09:38:16;3.22;;;0.98;;
13457;SDS011;6801;53.018;11.560;2023-12-28T09:40:43;3.33;;;1.17;;
13457;SDS011;6801;53.018;11.560;2023-12-28T09:43:12;3.67;;;1.48;;
13457;SDS011;6801;53.018;11.560;2023-12-28T09:45:45;4.90;;;1.48;;
13457;SDS011;6801;53.018;11.560;2023-12-28T09:48:14;5.50;;;1.00;;
13457;SDS011;6801;53.018;11.560;2023-12-28T09:50:43;5.10;;;1.20;;
13457;SDS011;6801;53.018;11.560;2023-12-28T09:53:10;4.72;;;1.15;;
13457;SDS011;6801;53.018;11.560;2023-12-28T09:55:38;4.45;;;1.25;;
13457;SDS011;6801;53.018;11.560;2023-12-28T09:58:05;3.25;;;1.10;;
13457;SDS011;6801;53.018;11.560;2023-12-28T10:00:32;3.10;;;1.08;;
13457;SDS011;6801;53.018;11.560;2023-12-28T10:02:59;3.40;;;1.30;;
13457;SDS011;6801;53.018;11.560;2023-12-28T10:05:28;5.32;;;1.42;;
13457;SDS011;6801;53.018;11.560;2023-12-28T10:07:56;3.10;;;1.08;;
13457;SDS011;6801;53.018;11.560;2023-12-28T10:10:23;5.28;;;1.20;;
13457;SDS011;6801;53.018;11.560;2023-12-28T10:12:50;4.35;;;1.00;;
13457;SDS011;6801;53.018;11.560;2023-12-28T10:15:17;4.38;;;1.02;;
13457;SDS011;6801;53.018;11.560;2023-12-28T10:17:45;6.85;;;1.23;;
13457;SDS011;6801;53.018;11.560;2023-12-28T10:20:12;4.10;;;0.90;;
13457;SDS011;6801;53.018;11.560;2023-12-28T10:22:40;6.90;;;1.17;;
13457;SDS011;6801;53.018;11.560;2023-12-28T10:25:09;3.55;;;1.10;;
13457;SDS011;6801;53.018;11.560;2023-12-28T10:27:37;3.67;;;1.00;;
13457;SDS011;6801;53.018;11.560;2023-12-28T10:30:06;4.63;;;1.08;;
13457;SDS011;6801;53.018;11.560;2023-12-28T10:32:35;4.25;;;1.10;;
13457;SDS011;6801;53.018;11.560;2023-12-28T10:35:02;3.92;;;1.55;;
13457;SDS011;6801;53.018;11.560;2023-12-28T10:37:29;4.70;;;0.90;;
13457;SDS011;6801;53.018;11.560;2023-12-28T10:39:59;3.53;;;0.98;;
13457;SDS011;6801;53.018;11.560;2023-12-28T10:42:30;4.72;;;1.05;;
13457;SDS011;6801;53.018;11.560;2023-12-28T10:45:01;2.53;;;1.10;;
13457;SDS011;6801;53.018;11.560;2023-12-28T10:47:31;3.10;;;1.52;;
13457;SDS011;6801;53.018;11.560;2023-12-28T10:50:00;3.40;;;0.77;;
13457;SDS011;6801;53.018;11.560;2023-12-28T10:52:30;5.88;;;1.10;;
13457;SDS011;6801;53.018;11.560;2023-12-28T10:55:06;6.10;;;1.63;;
13457;SDS011;6801;53.018;11.560;2023-12-28T10:57:50;3.30;;;1.13;;
13457;SDS011;6801;53.018;11.560;2023-12-28T11:00:25;3.53;;;1.38;;
13457;SDS011;6801;53.018;11.560;2023-12-28T11:02:58;3.33;;;1.20;;
13457;SDS011;6801;53.018;11.560;2023-12-28T11:05:31;4.00;;;1.02;;
13457;SDS011;6801;53.018;11.560;2023-12-28T11:07:59;2.95;;;1.08;;
13457;SDS011;6801;53.018;11.560;2023-12-28T11:10:26;5.60;;;1.35;;
13457;SDS011;6801;53.018;11.560;2023-12-28T11:12:57;3.47;;;1.00;;
13457;SDS011;6801;53.018;11.560;2023-12-28T11:15:26;6.00;;;1.20;;
13457;SDS011;6801;53.018;11.560;2023-12-28T11:17:54;4.22;;;1.25;;
13457;SDS011;6801;53.018;11.560;2023-12-28T11:20:21;2.83;;;0.80;;
13457;SDS011;6801;53.018;11.560;2023-12-28T11:22:49;3.85;;;1.48;;
13457;SDS011;6801;53.018;11.560;2023-12-28T11:25:17;2.85;;;1.42;;
13457;SDS011;6801;53.018;11.560;2023-12-28T11:27:45;4.82;;;1.60;;
13457;SDS011;6801;53.018;11.560;2023-12-28T11:30:14;3.65;;;1.00;;
13457;SDS011;6801;53.018;11.560;2023-12-28T11:32:41;1.13;;;0.60;;
13457;SDS011;6801;53.018;11.560;2023-12-28T11:35:10;3.13;;;0.95;;
13457;SDS011;6801;53.018;11.560;2023-12-28T11:37:41;3.15;;;1.10;;
13457;SDS011;6801;53.018;11.560;2023-12-28T11:40:13;4.47;;;1.15;;
13457;SDS011;6801;53.018;11.560;2023-12-28T11:42:47;3.42;;;1.10;;
13457;SDS011;6801;53.018;11.560;2023-12-28T11:45:18;4.38;;;1.00;;
13457;SDS011;6801;53.018;11.560;2023-12-28T11:47:47;3.53;;;1.02;;
13457;SDS011;6801;53.018;11.560;2023-12-28T11:50:24;3.72;;;1.38;;
13457;SDS011;6801;53.018;11.560;2023-12-28T11:52:52;5.75;;;0.77;;
13457;SDS011;6801;53.018;11.560;2023-12-28T11:55:20;4.30;;;1.05;;
13457;SDS011;6801;53.018;11.560;2023-12-28T11:57:48;4.28;;;1.20;;
13457;SDS011;6801;53.018;11.560;2023-12-28T12:00:19;5.03;;;1.60;;
13457;SDS011;6801;53.018;11.560;2023-12-28T12:02:47;3.50;;;1.05;;
13457;SDS011;6801;53.018;11.560;2023-12-28T12:05:14;8.05;;;1.55;;
13457;SDS011;6801;53.018;11.560;2023-12-28T12:07:42;4.72;;;1.25;;
13457;SDS011;6801;53.018;11.560;2023-12-28T12:10:13;5.30;;;1.13;;
13457;SDS011;6801;53.018;11.560;2023-12-28T12:12:42;5.97;;;1.20;;
13457;SDS011;6801;53.018;11.560;2023-12-28T12:15:10;6.18;;;1.48;;
13457;SDS011;6801;53.018;11.560;2023-12-28T12:17:39;4.75;;;0.88;;
13457;SDS011;6801;53.018;11.560;2023-12-28T12:20:06;5.18;;;1.10;;
13457;SDS011;6801;53.018;11.560;2023-12-28T12:22:35;5.38;;;1.23;;
13457;SDS011;6801;53.018;11.560;2023-12-28T12:25:02;4.43;;;1.10;;
13457;SDS011;6801;53.018;11.560;2023-12-28T12:27:31;5.45;;;1.20;;
13457;SDS011;6801;53.018;11.560;2023-12-28T12:29:58;5.78;;;1.25;;
13457;SDS011;6801;53.018;11.560;2023-12-28T12:32:25;5.65;;;1.45;;
13457;SDS011;6801;53.018;11.560;2023-12-28T12:34:54;4.78;;;1.13;;
13457;SDS011;6801;53.018;11.560;2023-12-28T12:37:21;4.72;;;0.90;;
13457;SDS011;6801;53.018;11.560;2023-12-28T12:39:48;4.78;;;1.10;;
13457;SDS011;6801;53.018;11.560;2023-12-28T12:42:15;6.38;;;1.30;;
13457;SDS011;6801;53.018;11.560;2023-12-28T12:44:43;7.30;;;1.45;;
13457;SDS011;6801;53.018;11.560;2023-12-28T12:47:10;6.22;;;1.33;;
13457;SDS011;6801;53.018;11.560;2023-12-28T12:49:39;8.55;;;1.42;;
13457;SDS011;6801;53.018;11.560;2023-12-28T12:52:09;8.38;;;1.70;;
13457;SDS011;6801;53.018;11.560;2023-12-28T12:54:36;7.20;;;1.40;;
13457;SDS011;6801;53.018;11.560;2023-12-28T12:57:03;7.55;;;1.55;;
13457;SDS011;6801;53.018;11.560;2023-12-28T12:59:31;5.30;;;1.33;;
13457;SDS011;6801;53.018;11.560;2023-12-28T13:01:59;8.27;;;1.35;;
13457;SDS011;6801;53.018;11.560;2023-12-28T13:04:26;6.85;;;1.38;;
13457;SDS011;6801;53.018;11.560;2023-12-28T13:06:53;5.07;;;1.15;;
13457;SDS011;6801;53.018;11.560;2023-12-28T13:09:21;6.15;;;1.50;;
13457;SDS011;6801;53.018;11.560;2023-12-28T13:11:49;8.10;;;1.30;;
13457;SDS011;6801;53.018;11.560;2023-12-28T13:14:17;6.80;;;1.10;;
13457;SDS011;6801;53.018;11.560;2023-12-28T13:16:44;11.02;;;1.58;;
13457;SDS011;6801;53.018;11.560;2023-12-28T13:19:13;7.60;;;1.50;;
13457;SDS011;6801;53.018;11.560;2023-12-28T13:21:40;10.02;;;1.73;;
13457;SDS011;6801;53.018;11.560;2023-12-28T13:24:08;7.35;;;1.60;;
13457;SDS011;6801;53.018;11.560;2023-12-28T13:26:36;15.43;;;4.70;;
13457;SDS011;6801;53.018;11.560;2023-12-28T13:29:03;10.68;;;2.53;;
13457;SDS011;6801;53.018;11.560;2023-12-28T13:31:30;11.00;;;1.98;;
13457;SDS011;6801;53.018;11.560;2023-12-28T13:33:57;6.88;;;1.35;;
13457;SDS011;6801;53.018;11.560;2023-12-28T13:36:24;10.23;;;1.67;;
13457;SDS011;6801;53.018;11.560;2023-12-28T13:38:52;6.95;;;1.27;;
13457;SDS011;6801;53.018;11.560;2023-12-28T13:41:19;13.57;;;2.20;;
13457;SDS011;6801;53.018;11.560;2023-12-28T13:43:48;5.45;;;1.33;;
13457;SDS011;6801;53.018;11.560;2023-12-28T13:46:15;6.30;;;1.52;;
13457;SDS011;6801;53.018;11.560;2023-12-28T13:48:41;8.15;;;1.40;;
13457;SDS011;6801;53.018;11.560;2023-12-28T13:51:08;10.48;;;2.17;;
13457;SDS011;6801;53.018;11.560;2023-12-28T13:53:36;12.75;;;1.85;;
13457;SDS011;6801;53.018;11.560;2023-12-28T13:56:05;5.72;;;1.13;;
13457;SDS011;6801;53.018;11.560;2023-12-28T13:58:33;5.43;;;1.15;;
13457;SDS011;6801;53.018;11.560;2023-12-28T14:01:02;7.47;;;1.40;;
13457;SDS011;6801;53.018;11.560;2023-12-28T14:03:29;12.90;;;2.38;;
13457;SDS011;6801;53.018;11.560;2023-12-28T14:05:55;7.40;;;1.55;;
13457;SDS011;6801;53.018;11.560;2023-12-28T14:08:22;7.32;;;1.60;;
13457;SDS011;6801;53.018;11.560;2023-12-28T14:10:49;8.15;;;1.38;;
13457;SDS011;6801;53.018;11.560;2023-12-28T14:13:16;8.23;;;1.40;;
13457;SDS011;6801;53.018;11.560;2023-12-28T14:15:42;5.70;;;1.50;;
13457;SDS011;6801;53.018;11.560;2023-12-28T14:18:11;4.15;;;1.08;;
13457;SDS011;6801;53.018;11.560;2023-12-28T14:20:38;3.58;;;0.75;;
13457;SDS011;6801;53.018;11.560;2023-12-28T14:23:05;12.48;;;1.83;;
13457;SDS011;6801;53.018;11.560;2023-12-28T14:25:33;7.65;;;1.50;;
13457;SDS011;6801;53.018;11.560;2023-12-28T14:28:01;11.55;;;1.67;;
13457;SDS011;6801;53.018;11.560;2023-12-28T14:30:28;9.77;;;1.40;;
13457;SDS011;6801;53.018;11.560;2023-12-28T14:32:56;8.65;;;1.88;;
13457;SDS011;6801;53.018;11.560;2023-12-28T14:35:25;11.45;;;1.88;;
13457;SDS011;6801;53.018;11.560;2023-12-28T14:37:53;5.75;;;1.27;;
13457;SDS011;6801;53.018;11.560;2023-12-28T14:40:20;8.77;;;1.60;;
13457;SDS011;6801;53.018;11.560;2023-12-28T14:42:47;4.88;;;1.05;;
13457;SDS011;6801;53.018;11.560;2023-12-28T14:45:14;7.72;;;1.38;;
13457;SDS011;6801;53.018;11.560;2023-12-28T14:47:41;8.90;;;2.42;;
13457;SDS011;6801;53.018;11.560;2023-12-28T14:50:08;7.35;;;1.15;;
13457;SDS011;6801;53.018;11.560;2023-12-28T14:52:36;7.18;;;1.42;;
13457;SDS011;6801;53.018;11.560;2023-12-28T14:55:07;10.85;;;1.92;;